Time;durP1;ratioP1;P1;durP2;ratioP2;P2;SDS_P1;SDS_P2;PMS_P1;PMS_P2;Temp;Humidity;BMP_temperature;BMP_pressure;BME280_temperature;BME280_humidity;BME280_pressure;Samples;Min_cycle;Max_cycle;Signal;HPM_P1;HPM_P2
2021/10/14 00:01:15;;;;;;;6.57;2.13;;;9.90;99.90;;;;;;5118862;27;20204;-68
2021/10/14 00:03:43;;;;;;;4.17;2.50;;;9.90;99.90;;;;;;5115373;27;20564;-68
2021/10/14 00:06:10;;;;;;;2.87;2.20;;;9.90;99.90;;;;;;5118049;27;20646;-68
2021/10/14 00:08:37;;;;;;;4.27;2.10;;;10.00;99.90;;;;;;5114419;27;20204;-68
2021/10/14 00:11:05;;;;;;;4.30;2.10;;;10.00;99.90;;;;;;5120616;27;20539;-68
2021/10/14 00:13:32;;;;;;;4.00;2.00;;;10.00;99.90;;;;;;5118915;27;20204;-68
2021/10/14 00:15:59;;;;;;;2.77;2.00;;;9.90;99.90;;;;;;5125764;27;20200;-68
2021/10/14 00:18:26;;;;;;;2.57;2.30;;;10.00;99.90;;;;;;5122035;28;20584;-68
2021/10/14 00:20:52;;;;;;;1.77;1.67;;;10.00;99.90;;;;;;5118562;28;20199;-68
2021/10/14 00:23:19;;;;;;;3.57;2.33;;;10.00;99.90;;;;;;5119690;28;20578;-68
2021/10/14 00:25:46;;;;;;;3.73;2.37;;;10.00;99.90;;;;;;5119099;28;20207;-68
2021/10/14 00:28:15;;;;;;;3.57;2.60;;;10.00;99.90;;;;;;5115248;28;21451;-68
2021/10/14 00:30:42;;;;;;;4.27;2.50;;;10.00;99.90;;;;;;5117847;28;20574;-68
2021/10/14 00:33:09;;;;;;;4.27;2.60;;;10.00;99.90;;;;;;5116554;28;20647;-68
2021/10/14 00:35:35;;;;;;;3.83;2.63;;;10.00;99.90;;;;;;5116682;28;20651;-68
2021/10/14 00:38:02;;;;;;;2.70;2.47;;;10.00;99.90;;;;;;5117357;28;20905;-68
2021/10/14 00:40:30;;;;;;;3.40;2.57;;;10.00;99.90;;;;;;5113798;28;20212;-68
2021/10/14 00:42:57;;;;;;;5.67;2.67;;;10.10;99.90;;;;;;5126884;28;20226;-68
2021/10/14 00:45:25;;;;;;;2.70;2.33;;;10.10;99.90;;;;;;5115209;28;20197;-68
2021/10/14 00:47:52;;;;;;;2.73;2.47;;;10.10;99.90;;;;;;5111535;28;20218;-68
2021/10/14 00:50:19;;;;;;;2.70;2.50;;;10.10;99.90;;;;;;5120974;28;20200;-68
2021/10/14 00:52:46;;;;;;;3.40;2.67;;;10.00;99.90;;;;;;5115675;28;20204;-68
2021/10/14 00:55:15;;;;;;;3.77;2.43;;;10.00;99.90;;;;;;5112523;28;20216;-68
2021/10/14 00:57:42;;;;;;;4.90;2.93;;;10.10;99.90;;;;;;5120672;28;20241;-68
2021/10/14 01:00:10;;;;;;;4.00;2.77;;;10.10;99.90;;;;;;5118717;28;20568;-68
2021/10/14 01:02:38;;;;;;;3.47;3.13;;;10.10;99.90;;;;;;5117005;28;20655;-69
2021/10/14 01:05:06;;;;;;;4.83;2.70;;;10.10;99.90;;;;;;5120229;28;20213;-68
2021/10/14 01:07:33;;;;;;;3.13;2.33;;;10.00;99.90;;;;;;5115508;28;20197;-68
2021/10/14 01:10:00;;;;;;;3.03;2.00;;;10.10;99.90;;;;;;5120863;28;20224;-68
2021/10/14 01:12:28;;;;;;;2.00;1.90;;;10.00;99.90;;;;;;5120083;28;20204;-68
2021/10/14 01:14:55;;;;;;;2.60;2.20;;;10.00;99.90;;;;;;5118128;28;20201;-68
2021/10/14 01:17:21;;;;;;;2.23;2.03;;;10.00;99.90;;;;;;5120687;27;20591;-68
2021/10/14 01:19:50;;;;;;;2.67;2.20;;;10.00;99.90;;;;;;5125633;27;20204;-68
2021/10/14 01:22:17;;;;;;;3.27;2.00;;;10.10;99.90;;;;;;5125420;27;20204;-68
2021/10/14 01:24:46;;;;;;;1.93;1.80;;;10.10;99.90;;;;;;5125104;27;20659;-68
2021/10/14 01:27:14;;;;;;;3.10;2.10;;;10.00;99.90;;;;;;5123556;27;20995;-68
2021/10/14 01:29:41;;;;;;;3.10;2.30;;;10.10;99.90;;;;;;5129992;27;20204;-68
2021/10/14 01:32:08;;;;;;;2.23;1.90;;;10.10;99.90;;;;;;5121673;27;20201;-68
2021/10/14 01:34:34;;;;;;;2.20;2.00;;;10.10;99.90;;;;;;5127296;27;20204;-68
2021/10/14 01:37:03;;;;;;;2.50;2.30;;;10.10;99.90;;;;;;5123763;27;20681;-68
2021/10/14 01:39:29;;;;;;;2.20;2.00;;;10.10;99.90;;;;;;5120368;27;20197;-68
2021/10/14 01:41:56;;;;;;;1.83;1.70;;;10.10;99.90;;;;;;5126222;27;20211;-68
2021/10/14 01:44:23;;;;;;;1.97;1.67;;;10.10;99.90;;;;;;5125872;27;20685;-68
2021/10/14 01:46:50;;;;;;;2.40;2.20;;;10.10;99.90;;;;;;5118104;27;20201;-68
2021/10/14 01:49:17;;;;;;;1.90;1.80;;;10.10;99.90;;;;;;5117878;27;20573;-68
2021/10/14 01:51:43;;;;;;;2.00;1.67;;;10.10;99.90;;;;;;5115413;27;20210;-68
2021/10/14 01:54:12;;;;;;;1.80;1.70;;;10.10;99.90;;;;;;5119419;27;20576;-68
2021/10/14 01:56:39;;;;;;;2.13;1.87;;;10.10;99.90;;;;;;5122653;27;20201;-68
2021/10/14 01:59:06;;;;;;;3.93;2.00;;;10.10;99.90;;;;;;5121264;27;20575;-68
2021/10/14 02:01:33;;;;;;;1.70;1.60;;;10.10;99.90;;;;;;5121024;27;20197;-68
2021/10/14 02:03:59;;;;;;;1.83;1.70;;;10.10;99.90;;;;;;5124623;27;20562;-68
2021/10/14 02:06:26;;;;;;;1.83;1.43;;;10.20;99.90;;;;;;5121848;27;20295;-68
2021/10/14 02:08:53;;;;;;;1.57;1.40;;;10.20;99.90;;;;;;5114948;27;20197;-69
2021/10/14 02:11:22;;;;;;;1.43;1.33;;;10.20;99.90;;;;;;5115315;27;20204;-68
2021/10/14 02:13:49;;;;;;;1.40;1.10;;;10.20;99.90;;;;;;5124965;27;20594;-68
2021/10/14 02:16:16;;;;;;;1.70;1.27;;;10.10;99.90;;;;;;5122252;27;20593;-68
2021/10/14 02:18:43;;;;;;;1.13;1.00;;;10.20;99.90;;;;;;5117752;27;20589;-68
2021/10/14 02:21:10;;;;;;;1.00;1.00;;;10.20;99.90;;;;;;5122220;27;20196;-68
2021/10/14 02:23:37;;;;;;;1.60;1.50;;;10.20;99.90;;;;;;5127950;27;20659;-68
2021/10/14 02:26:03;;;;;;;1.20;1.10;;;10.20;99.90;;;;;;5123409;27;20208;-68
2021/10/14 02:28:32;;;;;;;1.20;1.10;;;10.20;99.90;;;;;;5121654;27;20204;-67
2021/10/14 02:30:58;;;;;;;1.23;1.10;;;10.20;99.90;;;;;;5118097;27;20674;-68
2021/10/14 02:33:26;;;;;;;1.40;1.30;;;10.20;99.90;;;;;;5126775;27;20200;-68
2021/10/14 02:35:53;;;;;;;1.63;1.53;;;10.20;99.90;;;;;;5116297;27;20192;-68
2021/10/14 02:38:19;;;;;;;1.53;1.00;;;10.30;99.90;;;;;;5129756;27;20221;-68
2021/10/14 02:40:46;;;;;;;1.80;1.70;;;10.20;99.90;;;;;;5119130;27;20203;-68
2021/10/14 02:43:13;;;;;;;2.23;1.80;;;10.20;99.90;;;;;;5123024;27;20565;-68
2021/10/14 02:45:41;;;;;;;2.43;1.70;;;10.20;99.90;;;;;;5128259;27;20216;-68
2021/10/14 02:48:08;;;;;;;2.20;1.73;;;10.30;99.90;;;;;;5119061;27;20193;-68
2021/10/14 02:50:35;;;;;;;2.30;2.10;;;10.30;99.90;;;;;;5124702;27;20212;-68
2021/10/14 02:53:02;;;;;;;2.63;2.10;;;10.30;99.90;;;;;;5126155;27;20495;-68
2021/10/14 02:55:29;;;;;;;2.80;2.10;;;10.30;99.90;;;;;;5130933;27;20204;-68
2021/10/14 02:57:55;;;;;;;3.47;1.80;;;10.30;99.90;;;;;;5126895;27;20216;-68
2021/10/14 03:00:22;;;;;;;3.27;2.43;;;10.30;99.90;;;;;;5122537;27;20204;-68
2021/10/14 03:02:50;;;;;;;2.43;2.20;;;10.30;99.90;;;;;;5120941;27;20671;-68
2021/10/14 03:05:17;;;;;;;3.67;1.90;;;10.30;99.90;;;;;;5128307;27;20204;-68
2021/10/14 03:07:44;;;;;;;2.50;2.30;;;10.30;99.90;;;;;;5128081;27;20642;-68
2021/10/14 03:10:11;;;;;;;2.93;2.63;;;10.30;99.90;;;;;;5126706;27;20219;-68
2021/10/14 03:12:38;;;;;;;2.93;2.50;;;10.30;99.90;;;;;;5128791;27;20291;-68
2021/10/14 03:15:06;;;;;;;4.17;2.43;;;10.40;99.90;;;;;;5124088;27;20689;-68
2021/10/14 03:17:33;;;;;;;2.33;2.17;;;10.40;99.90;;;;;;5124219;27;20570;-68
2021/10/14 03:20:01;;;;;;;3.03;2.53;;;10.30;99.90;;;;;;5115924;27;20220;-68
2021/10/14 03:22:28;;;;;;;3.10;2.63;;;10.40;99.90;;;;;;5126894;27;20212;-68
2021/10/14 03:24:55;;;;;;;3.77;2.47;;;10.40;99.90;;;;;;5117318;27;20670;-68
2021/10/14 03:27:21;;;;;;;2.77;2.47;;;10.40;99.90;;;;;;5128648;27;20196;-68
2021/10/14 03:29:48;;;;;;;5.43;2.73;;;10.40;99.90;;;;;;5127898;27;20200;-69
2021/10/14 03:32:15;;;;;;;3.67;2.80;;;10.50;99.90;;;;;;5122775;27;20210;-68
2021/10/14 03:34:42;;;;;;;2.97;2.53;;;10.50;99.90;;;;;;5117740;27;20560;-69
2021/10/14 03:37:10;;;;;;;2.67;2.47;;;10.50;99.90;;;;;;5124457;27;20203;-68
2021/10/14 03:39:37;;;;;;;4.47;2.77;;;10.50;99.90;;;;;;5111399;27;20230;-68
2021/10/14 03:42:04;;;;;;;3.27;2.70;;;10.50;99.90;;;;;;5122370;27;20275;-68
2021/10/14 03:44:31;;;;;;;3.13;2.83;;;10.50;99.90;;;;;;5132755;27;20204;-68
2021/10/14 03:46:58;;;;;;;4.87;3.30;;;10.50;99.90;;;;;;5117898;27;20566;-68
2021/10/14 03:49:24;;;;;;;3.73;2.97;;;10.50;99.90;;;;;;5111978;28;20197;-68
2021/10/14 03:51:52;;;;;;;4.27;2.87;;;10.50;99.90;;;;;;5121996;27;20291;-68
2021/10/14 03:54:20;;;;;;;3.37;3.07;;;10.50;99.90;;;;;;5115752;27;20208;-68
2021/10/14 03:56:47;;;;;;;3.90;3.50;;;10.50;99.90;;;;;;5125988;27;20204;-68
2021/10/14 03:59:14;;;;;;;5.20;3.67;;;10.40;99.90;;;;;;5129979;27;20227;-68
2021/10/14 04:01:41;;;;;;;7.57;4.70;;;10.40;99.90;;;;;;5120166;27;20568;-68
2021/10/14 04:04:08;;;;;;;7.13;4.83;;;10.40;99.90;;;;;;5131805;27;20283;-68
2021/10/14 04:06:34;;;;;;;7.03;5.40;;;10.40;99.90;;;;;;5123954;27;20544;-68
2021/10/14 04:09:01;;;;;;;6.57;5.43;;;10.40;99.90;;;;;;5125829;27;20211;-68
2021/10/14 04:11:29;;;;;;;7.50;5.87;;;10.40;99.90;;;;;;5121651;27;20200;-68
2021/10/14 04:13:56;;;;;;;9.97;6.40;;;10.40;99.90;;;;;;5114803;27;20201;-68
2021/10/14 04:16:23;;;;;;;7.73;6.50;;;10.40;99.90;;;;;;5116780;27;20215;-69
2021/10/14 04:18:50;;;;;;;7.53;6.23;;;10.40;99.90;;;;;;5124522;27;20211;-68
2021/10/14 04:21:17;;;;;;;8.90;6.57;;;10.40;99.90;;;;;;5125040;28;20223;-68
2021/10/14 04:23:44;;;;;;;7.37;6.53;;;10.40;99.90;;;;;;5125507;28;20204;-68
2021/10/14 04:26:11;;;;;;;9.70;6.93;;;10.40;99.90;;;;;;5121311;28;20205;-68
2021/10/14 04:28:39;;;;;;;9.00;7.20;;;10.50;99.90;;;;;;5121357;28;20192;-68
2021/10/14 04:31:06;;;;;;;8.43;7.43;;;10.50;99.90;;;;;;5130502;28;20578;-68
2021/10/14 04:33:33;;;;;;;9.07;7.57;;;10.50;99.90;;;;;;5120662;28;20209;-68
2021/10/14 04:36:02;;;;;;;9.63;7.30;;;10.50;99.90;;;;;;5131719;28;20211;-68
2021/10/14 04:38:29;;;;;;;9.07;6.97;;;10.50;99.90;;;;;;5129728;28;20216;-68
2021/10/14 04:40:56;;;;;;;10.47;7.73;;;10.50;99.90;;;;;;5120004;28;20205;-68
2021/10/14 04:43:23;;;;;;;11.27;7.80;;;10.50;99.90;;;;;;5117474;28;20196;-68
2021/10/14 04:45:51;;;;;;;9.37;7.43;;;10.50;99.90;;;;;;5122022;28;20205;-68
2021/10/14 04:48:18;;;;;;;10.33;7.87;;;10.50;99.90;;;;;;5113768;28;20812;-68
2021/10/14 04:50:46;;;;;;;10.77;8.30;;;10.50;99.90;;;;;;5112903;28;20522;-68
2021/10/14 04:53:13;;;;;;;10.37;8.23;;;10.50;99.90;;;;;;5120834;27;20203;-69
2021/10/14 04:55:40;;;;;;;12.77;8.77;;;10.50;99.90;;;;;;5128688;27;20196;-68
2021/10/14 04:58:07;;;;;;;14.10;9.67;;;10.60;99.90;;;;;;5132188;27;20197;-68
2021/10/14 05:00:34;;;;;;;12.93;9.13;;;10.60;99.90;;;;;;5118064;27;20646;-68
2021/10/14 05:03:02;;;;;;;13.70;10.40;;;10.50;99.90;;;;;;5128812;27;20647;-68
2021/10/14 05:05:29;;;;;;;14.00;10.27;;;10.50;99.90;;;;;;5120504;27;20197;-68
2021/10/14 05:07:56;;;;;;;12.60;9.47;;;10.50;99.90;;;;;;5115590;27;20539;-68
2021/10/14 05:10:23;;;;;;;15.43;10.20;;;10.50;99.90;;;;;;5133703;27;20211;-68
2021/10/14 05:12:49;;;;;;;10.80;8.33;;;10.50;99.90;;;;;;5123439;27;20568;-68
2021/10/14 05:15:16;;;;;;;10.50;8.40;;;10.50;99.90;;;;;;5130183;27;20625;-68
2021/10/14 05:17:43;;;;;;;11.43;8.13;;;10.50;99.90;;;;;;5131447;27;20192;-68
2021/10/14 05:20:12;;;;;;;11.37;8.47;;;10.50;99.90;;;;;;5130756;27;20224;-68
2021/10/14 05:22:39;;;;;;;10.33;7.27;;;10.50;99.90;;;;;;5123377;27;20197;-68
2021/10/14 05:25:07;;;;;;;9.57;7.90;;;10.60;99.90;;;;;;5115392;28;20197;-69
2021/10/14 05:27:34;;;;;;;9.80;7.70;;;10.60;99.90;;;;;;5117456;27;20528;-68
2021/10/14 05:30:01;;;;;;;8.60;7.17;;;10.60;99.90;;;;;;5114820;28;20328;-68
2021/10/14 05:32:28;;;;;;;10.27;7.83;;;10.60;99.90;;;;;;5123194;27;20620;-68
2021/10/14 05:34:55;;;;;;;10.10;8.17;;;10.60;99.90;;;;;;5119337;27;20207;-68
2021/10/14 05:37:23;;;;;;;11.20;8.13;;;10.60;99.90;;;;;;5126601;27;20410;-68
2021/10/14 05:39:50;;;;;;;18.87;13.17;;;10.60;99.90;;;;;;5131588;27;20720;-68
2021/10/14 05:42:17;;;;;;;16.20;11.83;;;10.60;99.90;;;;;;5115699;27;20207;-68
2021/10/14 05:44:44;;;;;;;14.40;10.30;;;10.60;99.90;;;;;;5129405;27;20196;-68
2021/10/14 05:47:11;;;;;;;13.63;9.93;;;10.60;99.90;;;;;;5114805;27;20216;-68
2021/10/14 05:49:38;;;;;;;15.13;10.27;;;10.60;99.90;;;;;;5134377;27;20197;-68
2021/10/14 05:52:05;;;;;;;14.70;11.13;;;10.60;99.90;;;;;;5134966;27;20197;-68
2021/10/14 05:54:33;;;;;;;14.93;11.13;;;10.60;99.90;;;;;;5126556;27;20200;-69
2021/10/14 05:57:00;;;;;;;16.63;12.03;;;10.60;99.90;;;;;;5119924;27;20208;-68
2021/10/14 05:59:27;;;;;;;15.03;11.43;;;10.60;99.90;;;;;;5115661;27;20224;-69
2021/10/14 06:01:54;;;;;;;17.17;12.23;;;10.60;99.90;;;;;;5113435;28;20205;-68
2021/10/14 06:04:21;;;;;;;17.17;12.00;;;10.60;99.90;;;;;;5126793;27;20658;-68
2021/10/14 06:06:48;;;;;;;16.50;12.57;;;10.60;99.90;;;;;;5120569;27;20208;-69
2021/10/14 06:09:14;;;;;;;16.83;12.10;;;10.60;99.90;;;;;;5128886;27;20201;-69
2021/10/14 06:11:43;;;;;;;16.07;12.13;;;10.60;99.90;;;;;;5114040;27;20201;-69
2021/10/14 06:14:09;;;;;;;17.40;13.03;;;10.60;99.90;;;;;;5126957;27;20714;-69
2021/10/14 06:16:36;;;;;;;17.03;12.53;;;10.70;99.90;;;;;;5125843;27;20205;-69
2021/10/14 06:19:03;;;;;;;19.10;13.00;;;10.70;99.90;;;;;;5117588;27;20216;-69
2021/10/14 06:21:30;;;;;;;18.20;13.17;;;10.70;99.90;;;;;;5133591;27;20203;-69
2021/10/14 06:23:57;;;;;;;19.90;14.30;;;10.70;99.90;;;;;;5118857;27;20200;-68
2021/10/14 06:26:24;;;;;;;21.97;15.70;;;10.70;99.90;;;;;;5128954;27;20205;-68
2021/10/14 06:28:52;;;;;;;21.03;14.37;;;10.70;99.90;;;;;;5130702;27;20646;-68
2021/10/14 06:31:19;;;;;;;21.90;14.87;;;10.70;99.90;;;;;;5117460;27;20674;-69
2021/10/14 06:33:46;;;;;;;20.30;14.17;;;10.70;99.90;;;;;;5114721;27;20201;-68
2021/10/14 06:36:12;;;;;;;21.87;15.73;;;10.70;99.90;;;;;;5128268;27;20634;-69
2021/10/14 06:38:39;;;;;;;22.83;15.63;;;10.70;99.90;;;;;;5118345;27;20205;-68
2021/10/14 06:41:06;;;;;;;20.37;15.27;;;10.70;99.90;;;;;;5114089;27;20663;-68
2021/10/14 06:43:33;;;;;;;20.30;14.07;;;10.80;99.90;;;;;;5126858;27;20540;-69
2021/10/14 06:46:01;;;;;;;25.97;15.17;;;10.80;99.90;;;;;;5119363;27;20209;-68
2021/10/14 06:48:28;;;;;;;22.20;14.90;;;10.80;99.90;;;;;;5126562;27;20637;-68
2021/10/14 06:50:55;;;;;;;20.77;14.37;;;10.90;99.90;;;;;;5128085;27;20197;-68
2021/10/14 06:53:21;;;;;;;20.43;13.83;;;10.90;99.90;;;;;;5128765;27;20205;-69
2021/10/14 06:55:49;;;;;;;20.23;13.80;;;10.90;99.90;;;;;;5130697;27;20206;-68
2021/10/14 06:58:16;;;;;;;23.03;14.53;;;10.90;99.90;;;;;;5123696;27;20662;-68
2021/10/14 07:00:43;;;;;;;23.73;16.00;;;11.00;99.90;;;;;;5116466;27;20230;-69
2021/10/14 07:03:11;;;;;;;21.37;14.90;;;11.00;99.90;;;;;;5129501;27;20204;-68
2021/10/14 07:05:38;;;;;;;24.10;16.67;;;11.00;99.90;;;;;;5118402;27;20193;-69
2021/10/14 07:08:05;;;;;;;21.80;15.57;;;11.10;99.90;;;;;;5129853;27;20565;-69
2021/10/14 07:10:32;;;;;;;22.17;14.83;;;11.20;99.90;;;;;;5122945;27;20201;-69
2021/10/14 07:13:04;;;;;;;23.80;15.83;;;11.20;99.90;;;;;;5120630;27;20209;-69
2021/10/14 07:15:31;;;;;;;21.73;15.50;;;11.20;99.90;;;;;;5126357;27;20477;-68
2021/10/14 07:17:59;;;;;;;22.07;14.33;;;11.30;99.90;;;;;;5121067;27;20232;-69
2021/10/14 07:20:27;;;;;;;20.73;14.67;;;11.30;99.90;;;;;;5125225;27;20242;-69
2021/10/14 07:22:54;;;;;;;20.10;14.03;;;11.40;99.90;;;;;;5118524;27;20213;-69
2021/10/14 07:25:21;;;;;;;19.30;12.87;;;11.40;99.90;;;;;;5121336;27;20658;-69
2021/10/14 07:27:47;;;;;;;18.23;11.07;;;11.40;99.90;;;;;;5115041;27;20299;-68
2021/10/14 07:30:14;;;;;;;17.70;11.17;;;11.40;99.90;;;;;;5121619;27;20562;-68
2021/10/14 07:32:41;;;;;;;15.67;9.97;;;11.50;99.90;;;;;;5120360;27;20197;-68
2021/10/14 07:35:09;;;;;;;14.93;9.87;;;11.50;99.90;;;;;;5118509;27;20205;-68
2021/10/14 07:37:37;;;;;;;15.63;10.87;;;11.60;99.90;;;;;;5120274;27;20681;-68
2021/10/14 07:40:05;;;;;;;15.70;10.40;;;11.50;99.90;;;;;;5123225;27;20225;-68
2021/10/14 07:42:32;;;;;;;15.60;11.20;;;11.60;99.90;;;;;;5119379;27;20533;-69
2021/10/14 07:44:59;;;;;;;18.33;11.23;;;11.60;99.90;;;;;;5114377;27;20197;-68
2021/10/14 07:47:26;;;;;;;18.23;12.50;;;11.60;99.90;;;;;;5120062;27;20668;-68
2021/10/14 07:49:53;;;;;;;18.93;12.57;;;11.70;99.90;;;;;;5120188;27;20203;-68
2021/10/14 07:52:19;;;;;;;17.40;11.73;;;11.70;99.90;;;;;;5116917;27;20204;-68
2021/10/14 07:54:48;;;;;;;18.60;12.80;;;11.80;99.90;;;;;;5118912;27;20197;-68
2021/10/14 07:57:15;;;;;;;18.57;11.97;;;11.80;99.90;;;;;;5124347;27;20200;-68
2021/10/14 07:59:42;;;;;;;17.03;11.03;;;11.90;99.90;;;;;;5122937;27;20228;-68
2021/10/14 08:02:11;;;;;;;14.80;9.23;;;11.90;99.90;;;;;;5116391;27;20204;-68
2021/10/14 08:04:38;;;;;;;16.93;10.57;;;12.00;99.90;;;;;;5118136;27;20205;-68
2021/10/14 08:07:05;;;;;;;14.17;9.00;;;12.00;99.90;;;;;;5122456;27;20224;-68
2021/10/14 08:09:32;;;;;;;13.97;9.20;;;12.00;99.90;;;;;;5114445;27;20642;-68
2021/10/14 08:12:00;;;;;;;12.77;8.93;;;11.90;99.90;;;;;;5115539;27;20509;-69
2021/10/14 08:14:27;;;;;;;19.77;10.17;;;12.00;99.90;;;;;;5113388;27;20572;-68
2021/10/14 08:16:54;;;;;;;15.37;9.53;;;12.00;99.90;;;;;;5119624;27;20208;-70
2021/10/14 08:19:22;;;;;;;15.80;9.93;;;12.00;99.90;;;;;;5121785;27;20211;-68
2021/10/14 08:21:49;;;;;;;17.17;11.27;;;12.10;99.90;;;;;;5111848;27;20207;-68
2021/10/14 08:24:16;;;;;;;16.40;11.00;;;12.20;99.90;;;;;;5117437;27;20200;-68
2021/10/14 08:26:43;;;;;;;17.97;11.93;;;12.20;99.90;;;;;;5113123;27;20209;-68
2021/10/14 08:29:11;;;;;;;18.20;11.97;;;12.20;99.90;;;;;;5114485;27;20197;-68
2021/10/14 08:31:38;;;;;;;16.80;11.30;;;12.30;99.90;;;;;;5115606;27;20200;-67
2021/10/14 08:34:04;;;;;;;15.17;10.23;;;12.40;99.90;;;;;;5119788;27;20211;-68
2021/10/14 08:36:31;;;;;;;17.13;10.13;;;12.40;99.90;;;;;;5118707;27;20200;-68
2021/10/14 08:38:58;;;;;;;16.03;11.13;;;12.30;99.90;;;;;;5119083;28;20204;-68
2021/10/14 08:41:25;;;;;;;15.37;9.73;;;12.40;99.90;;;;;;5124220;27;20232;-68
2021/10/14 08:43:53;;;;;;;15.13;10.30;;;12.40;99.90;;;;;;5118538;28;20253;-68
2021/10/14 08:46:22;;;;;;;15.10;10.67;;;12.30;99.90;;;;;;5120305;28;20200;-68
2021/10/14 08:48:50;;;;;;;13.87;9.63;;;12.30;99.90;;;;;;5116270;28;20208;-68
2021/10/14 08:51:17;;;;;;;15.47;10.57;;;12.20;99.90;;;;;;5116000;28;20203;-68
2021/10/14 08:53:46;;;;;;;15.53;10.73;;;12.30;99.90;;;;;;5119592;28;20201;-68
2021/10/14 08:56:13;;;;;;;13.63;9.70;;;12.10;99.90;;;;;;5122154;27;20561;-68
2021/10/14 08:58:40;;;;;;;16.53;10.30;;;12.10;99.90;;;;;;5130302;28;20559;-68
2021/10/14 09:01:10;;;;;;;15.00;9.80;;;12.10;99.90;;;;;;5111984;28;20589;-68
2021/10/14 09:03:43;;;;;;;14.63;9.77;;;12.10;99.90;;;;;;5121164;28;20563;-68
2021/10/14 09:06:11;;;;;;;15.37;10.53;;;12.10;99.90;;;;;;5126005;28;20240;-68
2021/10/14 09:08:40;;;;;;;15.67;10.10;;;12.10;99.90;;;;;;5111010;28;20648;-68
2021/10/14 09:11:13;;;;;;;14.63;9.83;;;12.10;99.90;;;;;;5118331;28;20200;-68
2021/10/14 09:13:46;;;;;;;14.17;9.77;;;12.10;99.90;;;;;;5123747;28;20208;-68
2021/10/14 09:16:35;;;;;;;14.07;9.13;;;12.10;99.90;;;;;;5114976;27;20205;-68
2021/10/14 09:19:18;;;;;;;11.00;8.13;;;12.10;99.90;;;;;;5116726;27;20577;-68
2021/10/14 09:21:47;;;;;;;11.27;7.77;;;12.10;99.90;;;;;;5126457;28;20268;-68
2021/10/14 09:24:26;;;;;;;11.03;7.47;;;12.10;99.90;;;;;;5115625;28;20201;-68
2021/10/14 09:26:53;;;;;;;10.87;6.93;;;12.20;99.90;;;;;;5113056;27;20215;-68
2021/10/14 09:29:22;;;;;;;8.50;5.93;;;12.20;99.90;;;;;;5130743;28;20311;-68
2021/10/14 09:31:52;;;;;;;7.73;5.93;;;12.20;99.90;;;;;;5111160;28;20193;-68
2021/10/14 09:34:34;;;;;;;7.23;5.57;;;12.10;99.90;;;;;;5116806;28;20257;-67
2021/10/14 09:37:03;;;;;;;6.77;5.13;;;12.10;99.90;;;;;;5111454;28;20204;-68
2021/10/14 09:39:30;;;;;;;7.90;5.33;;;12.10;99.90;;;;;;5113487;28;20223;-68
2021/10/14 09:41:58;;;;;;;9.00;4.97;;;12.10;99.90;;;;;;5114886;27;20220;-70
2021/10/14 09:44:27;;;;;;;7.70;5.30;;;12.20;99.90;;;;;;5125171;27;20245;-68
2021/10/14 09:46:56;;;;;;;7.77;5.40;;;12.20;99.90;;;;;;5133462;27;20200;-68
2021/10/14 09:49:30;;;;;;;9.30;6.00;;;12.20;99.90;;;;;;5134601;27;20205;-68
2021/10/14 09:52:00;;;;;;;7.60;5.70;;;12.30;99.90;;;;;;5118684;27;20193;-68
2021/10/14 09:54:28;;;;;;;5.70;4.47;;;12.40;99.90;;;;;;5115974;27;20205;-68
2021/10/14 09:56:56;;;;;;;5.40;4.30;;;12.40;99.90;;;;;;5113342;27;20262;-68
2021/10/14 09:59:23;;;;;;;5.37;4.17;;;12.30;99.90;;;;;;5113963;28;20258;-68
2021/10/14 10:01:53;;;;;;;5.33;4.13;;;12.40;99.90;;;;;;5124263;27;20584;-68
2021/10/14 10:04:25;;;;;;;5.43;4.20;;;12.60;99.90;;;;;;5114525;28;20207;-68
2021/10/14 10:06:55;;;;;;;4.73;4.10;;;12.90;99.90;;;;;;5121066;27;20204;-67
2021/10/14 10:09:25;;;;;;;6.67;4.70;;;12.80;99.90;;;;;;5128300;27;20204;-68
2021/10/14 10:11:54;;;;;;;7.53;5.87;;;12.90;99.90;;;;;;5125771;27;20197;-68
2021/10/14 10:14:23;;;;;;;7.37;5.70;;;12.90;99.90;;;;;;5126772;27;20205;-68
2021/10/14 10:16:58;;;;;;;8.43;5.80;;;13.00;99.90;;;;;;5117730;27;20209;-68
2021/10/14 10:19:43;;;;;;;8.93;6.50;;;13.10;99.90;;;;;;5123064;27;20214;-68
2021/10/14 10:22:12;;;;;;;9.93;6.90;;;13.20;99.90;;;;;;5116482;27;20213;-68
2021/10/14 10:24:39;;;;;;;9.53;6.23;;;13.20;99.90;;;;;;5118979;27;20200;-68
2021/10/14 10:27:10;;;;;;;8.13;6.23;;;13.30;99.90;;;;;;5118854;27;20578;-68
2021/10/14 10:29:59;;;;;;;9.33;6.40;;;13.50;99.90;;;;;;5127541;27;20307;-68
2021/10/14 10:32:26;;;;;;;11.07;7.13;;;13.60;99.90;;;;;;5126049;27;20200;-68
2021/10/14 10:35:04;;;;;;;7.80;5.80;;;13.50;99.90;;;;;;5118208;27;20207;-68
2021/10/14 10:37:41;;;;;;;10.67;6.97;;;13.50;99.90;;;;;;5117134;27;20204;-68
2021/10/14 10:40:32;;;;;;;9.63;6.70;;;13.50;99.90;;;;;;5116542;27;20196;-68
2021/10/14 10:43:05;;;;;;;9.57;6.77;;;13.40;99.90;;;;;;5126618;27;20205;-68
2021/10/14 10:45:43;;;;;;;10.17;6.93;;;13.50;99.90;;;;;;5117781;27;20654;-68
2021/10/14 10:48:10;;;;;;;10.97;7.53;;;13.50;99.90;;;;;;5120034;27;20196;-68
2021/10/14 10:50:49;;;;;;;11.87;7.87;;;13.60;99.90;;;;;;5119359;27;20189;-68
2021/10/14 10:53:21;;;;;;;13.37;8.53;;;13.60;99.90;;;;;;5122282;27;20200;-68
2021/10/14 10:55:53;;;;;;;12.07;7.97;;;13.50;99.90;;;;;;5123779;27;20288;-68
2021/10/14 10:58:46;;;;;;;13.07;8.03;;;13.50;99.90;;;;;;5110367;28;20201;-68
2021/10/14 11:01:14;;;;;;;14.23;8.03;;;13.50;99.90;;;;;;5123762;27;20592;-68
2021/10/14 11:03:54;;;;;;;11.30;7.53;;;13.60;99.90;;;;;;5122672;27;20204;-68
2021/10/14 11:06:21;;;;;;;11.60;8.43;;;13.60;99.90;;;;;;5119191;27;20210;-68
2021/10/14 11:08:51;;;;;;;11.60;8.13;;;13.60;99.90;;;;;;5118691;27;20650;-71
2021/10/14 11:11:19;;;;;;;12.43;8.03;;;13.70;99.90;;;;;;5132517;27;20200;-68
2021/10/14 11:13:50;;;;;;;13.13;8.57;;;13.70;99.90;;;;;;5113620;27;20205;-68
2021/10/14 11:16:18;;;;;;;13.33;7.40;;;13.80;99.90;;;;;;5112272;27;20208;-68
2021/10/14 11:18:47;;;;;;;11.07;7.73;;;13.70;99.90;;;;;;5112496;27;20212;-68
2021/10/14 11:21:15;;;;;;;12.57;7.77;;;13.80;99.90;;;;;;5126821;27;20226;-68
2021/10/14 11:23:44;;;;;;;13.00;8.30;;;13.90;99.90;;;;;;5129200;27;20225;-68
2021/10/14 11:26:14;;;;;;;13.57;9.27;;;14.10;99.90;;;;;;5117806;27;20201;-68
2021/10/14 11:28:51;;;;;;;12.50;8.23;;;14.10;99.90;;;;;;5131316;27;20342;-68
2021/10/14 11:31:24;;;;;;;11.60;7.73;;;14.30;99.90;;;;;;5114244;27;20250;-68
2021/10/14 11:33:51;;;;;;;12.70;8.83;;;14.30;99.90;;;;;;5116566;27;20193;-68
2021/10/14 11:36:20;;;;;;;13.20;8.53;;;14.20;99.90;;;;;;5120260;27;20680;-68
2021/10/14 11:38:57;;;;;;;12.73;7.90;;;14.10;99.90;;;;;;5119025;27;20201;-68
2021/10/14 11:41:25;;;;;;;13.83;8.50;;;14.10;99.90;;;;;;5124418;27;20221;-68
2021/10/14 11:43:55;;;;;;;13.73;8.30;;;14.00;99.90;;;;;;5117385;27;20546;-69
2021/10/14 11:46:27;;;;;;;14.70;8.33;;;14.00;99.90;;;;;;5115827;27;20196;-69
2021/10/14 11:48:57;;;;;;;12.70;8.13;;;13.90;99.90;;;;;;5112627;27;20200;-68
2021/10/14 11:51:25;;;;;;;12.70;8.53;;;13.90;99.90;;;;;;5117044;27;20535;-68
2021/10/14 11:53:56;;;;;;;11.90;7.83;;;13.90;99.90;;;;;;5117397;27;20197;-68
2021/10/14 11:56:25;;;;;;;14.23;8.20;;;13.90;99.90;;;;;;5121576;27;20204;-68
2021/10/14 11:58:52;;;;;;;15.57;9.07;;;13.70;99.90;;;;;;5119949;27;20192;-68
2021/10/14 12:01:23;;;;;;;13.77;8.47;;;13.80;99.90;;;;;;5119368;27;20227;-68
2021/10/14 12:03:52;;;;;;;15.27;9.30;;;13.70;99.90;;;;;;5128957;27;20192;-68
2021/10/14 12:06:22;;;;;;;16.03;9.07;;;13.60;99.90;;;;;;5127235;27;20200;-68
2021/10/14 12:08:50;;;;;;;15.30;9.80;;;13.60;99.90;;;;;;5120257;27;20201;-68
2021/10/14 12:11:18;;;;;;;16.67;9.83;;;13.60;99.90;;;;;;5122832;27;20674;-68
2021/10/14 12:13:56;;;;;;;17.50;10.53;;;13.60;99.90;;;;;;5117888;27;20635;-68
2021/10/14 12:16:23;;;;;;;18.73;10.87;;;13.50;99.90;;;;;;5116392;27;20576;-68
2021/10/14 12:18:50;;;;;;;17.53;11.10;;;13.40;99.90;;;;;;5120806;27;20197;-68
2021/10/14 12:21:31;;;;;;;19.40;11.37;;;13.40;99.90;;;;;;5117869;27;20273;-68
2021/10/14 12:24:11;;;;;;;20.00;11.50;;;13.40;99.90;;;;;;5116977;28;20730;-68
2021/10/14 12:26:41;;;;;;;20.93;12.17;;;13.30;99.90;;;;;;5115738;28;20206;-69
2021/10/14 12:29:20;;;;;;;22.53;14.63;;;13.30;99.90;;;;;;5122375;28;20197;-68
2021/10/14 12:31:47;;;;;;;20.63;13.00;;;13.30;99.90;;;;;;5118572;28;20200;-68
2021/10/14 12:34:14;;;;;;;20.17;13.23;;;13.20;99.90;;;;;;5122890;28;20196;-68
2021/10/14 12:36:45;;;;;;;22.67;13.80;;;13.20;99.90;;;;;;5125910;28;20193;-68
2021/10/14 12:39:19;;;;;;;21.93;13.43;;;13.20;99.90;;;;;;5123293;28;20283;-68
2021/10/14 12:41:54;;;;;;;23.67;13.93;;;13.20;99.90;;;;;;5118861;28;20670;-68
2021/10/14 12:44:25;;;;;;;23.33;14.53;;;13.20;99.90;;;;;;5121082;28;20204;-69